Time;durP1;ratioP1;P1;durP2;ratioP2;P2;SDS_P1;SDS_P2;PMS_P1;PMS_P2;Temp;Humidity;BMP_temperature;BMP_pressure;BME280_temperature;BME280_humidity;BME280_pressure;Samples;Min_cycle;Max_cycle;Signal;HPM_P1;HPM_P2
2022/03/17 00:00:20;;;;;;;17.13;13.53;;;11.80;99.90;;;;;;5026209;28;20595;-76
2022/03/17 00:02:47;;;;;;;16.80;13.53;;;11.80;99.90;;;;;;5027737;28;20214;-76
2022/03/17 00:05:15;;;;;;;22.00;14.23;;;11.80;99.90;;;;;;5027426;28;20199;-76
2022/03/17 00:07:43;;;;;;;22.20;14.20;;;11.70;99.90;;;;;;5060643;28;20206;-76
2022/03/17 00:10:13;;;;;;;23.53;14.33;;;11.80;99.90;;;;;;5048279;28;20202;-76
2022/03/17 00:12:40;;;;;;;20.53;14.03;;;11.70;99.90;;;;;;5046824;28;20201;-77
2022/03/17 00:15:09;;;;;;;16.73;13.70;;;11.70;99.90;;;;;;5046357;28;20205;-75
2022/03/17 00:17:36;;;;;;;20.47;14.37;;;11.70;99.90;;;;;;5032720;28;20206;-76
2022/03/17 00:20:06;;;;;;;16.97;13.47;;;11.60;99.90;;;;;;5027123;28;20260;-76
2022/03/17 00:22:33;;;;;;;17.37;14.33;;;11.70;99.90;;;;;;5025928;28;20772;-77
2022/03/17 00:25:00;;;;;;;19.63;14.90;;;11.60;99.90;;;;;;5027409;28;20214;-77
2022/03/17 00:27:26;;;;;;;17.90;14.97;;;11.60;99.90;;;;;;5026603;28;20217;-76
2022/03/17 00:29:54;;;;;;;20.07;14.67;;;11.50;99.90;;;;;;5027159;28;20560;-77
2022/03/17 00:32:23;;;;;;;22.20;15.63;;;11.50;99.90;;;;;;5026234;28;20233;-76
2022/03/17 00:37:36;;;;;;;21.97;15.30;;;11.40;99.90;;;;;;5026742;28;20210;-77
2022/03/17 00:40:03;;;;;;;20.87;15.70;;;11.40;99.90;;;;;;5027174;28;20222;-77
2022/03/17 00:42:30;;;;;;;23.80;15.83;;;11.30;99.90;;;;;;5025346;28;20509;-76
2022/03/17 00:44:57;;;;;;;18.50;15.23;;;11.30;99.90;;;;;;5026569;28;20222;-77
2022/03/17 00:47:25;;;;;;;20.27;15.43;;;11.30;99.90;;;;;;5026073;28;20658;-77
2022/03/17 00:49:52;;;;;;;21.77;15.47;;;11.30;99.90;;;;;;5025175;28;20218;-78
2022/03/17 00:52:20;;;;;;;21.20;16.60;;;11.30;99.90;;;;;;5026245;28;20238;-77
2022/03/17 00:54:47;;;;;;;21.43;16.03;;;11.30;99.90;;;;;;5027089;28;20206;-77
2022/03/17 00:57:14;;;;;;;20.80;15.77;;;11.30;99.90;;;;;;5026089;28;20218;-77
2022/03/17 00:59:41;;;;;;;24.20;16.73;;;11.30;99.90;;;;;;5028010;22;20239;-77
2022/03/17 01:02:08;;;;;;;21.47;17.83;;;11.20;99.90;;;;;;5006607;28;20241;-77
2022/03/17 01:04:37;;;;;;;24.53;17.30;;;11.10;99.90;;;;;;5005269;28;20213;-78
2022/03/17 01:07:04;;;;;;;25.93;17.57;;;11.10;99.90;;;;;;5006917;28;20203;-77
2022/03/17 01:09:31;;;;;;;25.60;17.90;;;11.10;99.90;;;;;;5006084;28;20681;-78
2022/03/17 01:11:58;;;;;;;25.60;18.97;;;11.00;99.90;;;;;;5006257;28;20226;-76
2022/03/17 01:14:25;;;;;;;27.83;19.27;;;11.00;99.90;;;;;;5005949;28;20207;-77
2022/03/17 01:16:52;;;;;;;25.23;19.10;;;11.00;99.90;;;;;;5005729;28;20222;-77
2022/03/17 01:19:20;;;;;;;25.33;18.77;;;10.90;99.90;;;;;;5006390;28;20240;-77
2022/03/17 01:21:49;;;;;;;28.63;19.63;;;10.90;99.90;;;;;;5006369;28;20227;-78
2022/03/17 01:24:16;;;;;;;23.23;18.23;;;10.90;99.90;;;;;;5005595;28;20215;-78
2022/03/17 01:26:43;;;;;;;29.20;20.73;;;10.90;99.90;;;;;;5006429;28;20214;-78
2022/03/17 01:29:10;;;;;;;30.47;20.20;;;10.80;99.90;;;;;;5006691;28;20208;-76
2022/03/17 01:31:37;;;;;;;27.53;19.53;;;10.80;99.90;;;;;;5005253;28;20234;-78
2022/03/17 01:34:04;;;;;;;27.20;20.07;;;10.80;99.90;;;;;;5006331;28;20207;-76
2022/03/17 01:36:31;;;;;;;27.73;20.80;;;10.80;99.90;;;;;;5017981;28;20297;-78
2022/03/17 01:38:59;;;;;;;27.37;21.00;;;10.80;99.90;;;;;;5025088;28;20207;-77
2022/03/17 01:41:26;;;;;;;32.50;21.23;;;10.80;99.90;;;;;;5025376;28;20234;-78
2022/03/17 01:43:52;;;;;;;29.97;21.87;;;10.80;99.90;;;;;;5022309;28;20201;-78
2022/03/17 01:46:19;;;;;;;27.33;22.03;;;10.80;99.90;;;;;;5005271;28;20207;-78
2022/03/17 01:48:46;;;;;;;29.13;21.33;;;10.80;99.90;;;;;;5016979;28;20207;-78
2022/03/17 01:51:13;;;;;;;28.10;21.63;;;10.80;99.90;;;;;;5005584;28;20234;-78
2022/03/17 01:53:40;;;;;;;32.27;23.53;;;10.80;99.90;;;;;;5004714;28;20222;-78
2022/03/17 01:56:08;;;;;;;30.53;22.80;;;10.80;99.90;;;;;;5005698;28;20618;-78
2022/03/17 01:58:35;;;;;;;33.00;23.43;;;10.80;99.90;;;;;;5024269;28;20214;-76
2022/03/17 02:01:03;;;;;;;32.53;24.07;;;10.80;99.90;;;;;;5024619;28;20239;-77
2022/03/17 02:03:30;;;;;;;32.13;23.77;;;10.80;99.90;;;;;;5025475;28;20202;-78
2022/03/17 02:05:57;;;;;;;35.07;26.17;;;10.90;99.90;;;;;;5008843;28;20203;-78
2022/03/17 02:08:23;;;;;;;31.53;25.10;;;10.90;99.90;;;;;;5005330;28;20207;-78
2022/03/17 02:13:36;;;;;;;37.33;23.30;;;10.90;99.90;;;;;;5005712;28;20253;-79
2022/03/17 02:16:03;;;;;;;19.73;11.73;;;10.90;99.90;;;;;;5007647;28;20203;-80
2022/03/17 02:18:31;;;;;;;14.17;9.03;;;10.60;99.90;;;;;;5006189;28;20211;-80
2022/03/17 02:20:59;;;;;;;14.33;7.23;;;10.30;99.90;;;;;;5006903;28;20573;-80
2022/03/17 02:26:24;;;;;;;14.97;6.77;;;9.90;99.90;;;;;;4926427;29;20228;-79
2022/03/17 02:28:50;;;;;;;18.30;7.23;;;9.80;99.90;;;;;;4986794;28;20607;-79
2022/03/17 02:31:17;;;;;;;14.63;6.63;;;9.60;99.90;;;;;;5005670;28;20553;-78
2022/03/17 02:33:44;;;;;;;14.87;6.13;;;9.50;99.90;;;;;;5005956;28;20207;-79
2022/03/17 02:36:11;;;;;;;10.57;5.53;;;9.40;99.90;;;;;;5005296;28;20210;-81
2022/03/17 02:38:40;;;;;;;12.23;4.87;;;9.30;99.90;;;;;;5006901;28;20204;-80
2022/03/17 02:41:07;;;;;;;11.93;4.50;;;9.30;99.90;;;;;;5005894;28;20209;-80
2022/03/17 02:43:33;;;;;;;12.20;5.07;;;9.20;99.90;;;;;;5005608;28;20203;-79
2022/03/17 02:46:00;;;;;;;12.30;4.33;;;9.20;99.90;;;;;;5006895;28;20210;-81
2022/03/17 02:48:27;;;;;;;10.90;5.13;;;9.20;99.90;;;;;;5019367;28;20199;-80
2022/03/17 02:50:54;;;;;;;12.40;4.43;;;9.10;99.90;;;;;;5006181;28;20206;-81
2022/03/17 02:53:20;;;;;;;6.57;4.07;;;9.10;99.90;;;;;;5005959;28;20203;-83
2022/03/17 02:55:49;;;;;;;12.93;4.27;;;9.10;99.90;;;;;;5005257;28;20631;-80
2022/03/17 02:58:16;;;;;;;13.20;5.20;;;9.00;99.90;;;;;;5006470;28;20207;-81
2022/03/17 03:00:43;;;;;;;16.93;4.83;;;9.00;99.90;;;;;;5005752;28;20554;-80
2022/03/17 03:03:09;;;;;;;13.63;4.80;;;9.00;99.90;;;;;;5005132;28;20214;-82
2022/03/17 03:05:38;;;;;;;12.50;5.40;;;9.00;99.90;;;;;;5006347;28;20207;-79
2022/03/17 03:08:05;;;;;;;11.30;5.37;;;8.90;99.90;;;;;;5005686;28;20578;-80
2022/03/17 03:10:33;;;;;;;12.93;5.40;;;8.90;99.90;;;;;;5005804;28;20293;-79
2022/03/17 03:13:01;;;;;;;17.70;6.70;;;9.00;99.90;;;;;;5010741;28;20227;-81
2022/03/17 03:15:30;;;;;;;24.47;6.90;;;8.90;99.90;;;;;;5010894;28;20210;-80
2022/03/17 03:17:57;;;;;;;17.30;7.33;;;8.90;99.90;;;;;;5009248;28;20870;-80
2022/03/17 03:20:24;;;;;;;19.47;7.67;;;8.90;99.90;;;;;;5010299;28;20203;-80
2022/03/17 03:22:51;;;;;;;24.77;9.37;;;8.90;99.90;;;;;;5011079;28;20489;-82
2022/03/17 03:25:18;;;;;;;19.63;9.23;;;8.90;99.90;;;;;;5010374;28;20506;-82
2022/03/17 03:27:44;;;;;;;26.60;10.40;;;8.90;99.90;;;;;;5010983;28;20203;-80
2022/03/17 03:30:14;;;;;;;17.80;8.30;;;8.90;99.90;;;;;;5016408;28;20203;-78
2022/03/17 03:32:44;;;;;;;17.60;7.07;;;8.90;99.90;;;;;;5030178;28;20215;-81
2022/03/17 03:37:53;;;;;;;20.17;6.80;;;8.80;99.90;;;;;;4977577;28;20250;-82
2022/03/17 03:40:19;;;;;;;22.17;6.20;;;8.80;99.90;;;;;;5009947;28;20265;-81
2022/03/17 03:42:46;;;;;;;16.50;6.53;;;8.80;99.90;;;;;;5009734;28;20199;-80
2022/03/17 03:45:14;;;;;;;26.40;8.63;;;8.80;99.90;;;;;;5027627;28;20217;-82
2022/03/17 03:47:41;;;;;;;21.23;5.70;;;8.80;99.90;;;;;;5029989;28;20202;-81
2022/03/17 03:50:09;;;;;;;19.07;5.10;;;8.80;99.90;;;;;;5030665;28;20203;-81
2022/03/17 03:52:36;;;;;;;20.40;4.50;;;8.80;99.90;;;;;;5021562;28;20215;-80
2022/03/17 03:55:03;;;;;;;21.33;5.77;;;8.80;99.90;;;;;;5010239;28;20211;-84
2022/03/17 03:57:30;;;;;;;22.43;4.57;;;8.80;99.90;;;;;;5011273;28;20226;-82
2022/03/17 03:59:56;;;;;;;22.23;4.20;;;8.80;99.90;;;;;;5018904;28;20247;-82
2022/03/17 04:02:25;;;;;;;25.50;5.00;;;8.80;99.90;;;;;;5028923;28;20199;-81
2022/03/17 04:04:51;;;;;;;16.00;3.90;;;8.70;99.90;;;;;;5028214;28;20753;-80
2022/03/17 04:07:18;;;;;;;17.20;4.97;;;8.70;99.90;;;;;;5010285;28;20207;-83
2022/03/17 04:09:45;;;;;;;16.37;3.27;;;8.70;99.90;;;;;;5009768;28;20266;-80
2022/03/17 04:12:14;;;;;;;19.97;4.63;;;8.70;99.90;;;;;;5029548;28;20241;-79
2022/03/17 04:14:41;;;;;;;16.50;3.13;;;8.60;99.90;;;;;;5028919;28;20193;-80
2022/03/17 04:17:08;;;;;;;19.13;3.23;;;8.60;99.90;;;;;;5010388;28;20215;-80
2022/03/17 04:19:36;;;;;;;18.70;3.20;;;8.60;99.90;;;;;;5008988;28;20214;-81
2022/03/17 04:22:03;;;;;;;19.93;4.77;;;8.60;99.90;;;;;;5007613;28;20368;-78
2022/03/17 04:24:30;;;;;;;15.47;3.03;;;8.60;99.90;;;;;;5008924;28;20207;-79
2022/03/17 04:26:57;;;;;;;15.70;3.80;;;8.60;99.90;;;;;;5008751;28;20203;-80
2022/03/17 04:29:23;;;;;;;11.53;3.20;;;8.60;99.90;;;;;;5009080;28;20211;-82
2022/03/17 04:31:50;;;;;;;15.47;2.77;;;8.60;99.90;;;;;;5009283;28;20230;-80
2022/03/17 04:34:18;;;;;;;22.70;4.23;;;8.60;99.90;;;;;;5008750;28;20211;-80
2022/03/17 04:36:46;;;;;;;21.37;3.90;;;8.60;99.90;;;;;;5009334;28;20222;-80
2022/03/17 04:39:13;;;;;;;17.33;4.10;;;8.60;99.90;;;;;;5008902;28;20238;-81
2022/03/17 04:41:40;;;;;;;17.37;4.00;;;8.60;99.90;;;;;;5009447;28;20226;-80
2022/03/17 04:44:07;;;;;;;15.90;3.03;;;8.60;99.90;;;;;;5009450;28;20591;-81
2022/03/17 04:46:34;;;;;;;20.57;4.83;;;8.60;99.90;;;;;;5009672;28;20239;-81
2022/03/17 04:49:01;;;;;;;24.37;4.10;;;8.60;99.90;;;;;;5008838;28;20211;-80
2022/03/17 04:51:29;;;;;;;16.33;3.63;;;8.50;99.90;;;;;;5008877;28;20203;-80
2022/03/17 04:53:57;;;;;;;13.07;2.63;;;8.50;99.90;;;;;;5008617;28;20966;-79
2022/03/17 04:56:24;;;;;;;16.53;4.40;;;8.40;99.90;;;;;;5023627;28;20570;-79
2022/03/17 04:58:50;;;;;;;18.43;3.63;;;8.50;99.90;;;;;;5022544;28;20721;-79
2022/03/17 05:01:18;;;;;;;18.83;3.30;;;8.50;99.90;;;;;;5007535;28;20209;-80
2022/03/17 05:03:45;;;;;;;17.33;3.13;;;8.50;99.90;;;;;;5007907;28;20199;-79
2022/03/17 05:06:13;;;;;;;21.10;3.87;;;8.50;99.90;;;;;;5007970;28;20207;-80
2022/03/17 05:08:41;;;;;;;14.50;3.90;;;8.50;99.90;;;;;;5008564;28;20682;-79
2022/03/17 05:11:10;;;;;;;17.43;3.47;;;8.50;99.90;;;;;;5007311;28;20203;-79
2022/03/17 05:13:39;;;;;;;18.40;3.20;;;8.50;99.90;;;;;;5006936;28;20656;-79
2022/03/17 05:16:06;;;;;;;21.87;3.37;;;8.50;99.90;;;;;;5007005;28;20207;-79
2022/03/17 05:18:33;;;;;;;19.57;4.03;;;8.50;99.90;;;;;;5007201;28;20210;-79
2022/03/17 05:21:00;;;;;;;15.60;3.40;;;8.50;99.90;;;;;;5007618;28;20667;-81
2022/03/17 05:23:27;;;;;;;18.40;3.23;;;8.50;99.90;;;;;;5006662;28;20208;-80
2022/03/17 05:25:54;;;;;;;15.30;3.33;;;8.50;99.90;;;;;;5007400;28;20231;-78
2022/03/17 05:28:22;;;;;;;19.80;3.93;;;8.40;99.90;;;;;;5006931;28;20210;-77
2022/03/17 05:30:49;;;;;;;25.23;4.37;;;8.40;99.90;;;;;;5006619;28;20208;-80
2022/03/17 05:33:16;;;;;;;20.50;3.40;;;8.30;99.90;;;;;;5017965;28;20226;-78
2022/03/17 05:35:44;;;;;;;19.40;3.40;;;8.30;99.90;;;;;;5025998;28;20202;-79
2022/03/17 05:38:11;;;;;;;16.80;3.30;;;8.30;99.90;;;;;;5025575;28;20198;-80
2022/03/17 05:40:38;;;;;;;19.03;4.10;;;8.30;99.90;;;;;;5025843;28;20198;-81
2022/03/17 05:43:07;;;;;;;16.37;3.43;;;8.30;99.90;;;;;;5026208;28;20571;-79
2022/03/17 05:45:37;;;;;;;15.57;3.57;;;8.30;99.90;;;;;;5025393;28;20214;-81
2022/03/17 05:48:05;;;;;;;18.97;3.97;;;8.30;99.90;;;;;;5022148;28;20216;-80
2022/03/17 05:50:34;;;;;;;16.63;3.00;;;8.30;99.90;;;;;;5005792;28;20213;-80
2022/03/17 05:53:01;;;;;;;13.77;2.63;;;8.30;99.90;;;;;;5005719;28;20238;-78
2022/03/17 05:55:28;;;;;;;14.90;3.37;;;8.30;99.90;;;;;;5006727;28;20203;-79
2022/03/17 05:57:56;;;;;;;11.83;3.00;;;8.30;99.90;;;;;;5006502;28;20234;-81
2022/03/17 06:00:26;;;;;;;19.23;4.27;;;8.30;99.90;;;;;;5004951;28;20274;-79
2022/03/17 06:02:54;;;;;;;20.57;4.10;;;8.40;99.90;;;;;;5007164;28;20200;-80
2022/03/17 06:05:21;;;;;;;12.10;2.80;;;8.30;99.90;;;;;;5006248;28;20203;-79
2022/03/17 06:07:50;;;;;;;9.63;2.50;;;8.30;99.90;;;;;;5009787;28;20210;-78
2022/03/17 06:10:21;;;;;;;20.90;3.73;;;8.30;99.90;;;;;;5026379;28;20198;-78
2022/03/17 06:12:50;;;;;;;9.57;2.90;;;8.30;99.90;;;;;;5026018;28;20244;-80
2022/03/17 06:15:16;;;;;;;22.03;2.90;;;8.30;99.90;;;;;;5011791;28;20218;-79
2022/03/17 06:17:45;;;;;;;13.40;3.17;;;8.30;99.90;;;;;;5006616;28;20218;-78
2022/03/17 06:20:15;;;;;;;18.67;3.83;;;8.30;99.90;;;;;;5006097;28;20706;-80
2022/03/17 06:22:43;;;;;;;11.77;3.20;;;8.30;99.90;;;;;;5006649;28;20674;-81
2022/03/17 06:25:14;;;;;;;16.47;3.23;;;8.40;99.90;;;;;;5006369;28;20218;-81
2022/03/17 06:27:41;;;;;;;14.27;2.77;;;8.40;99.90;;;;;;5005772;28;20292;-82
2022/03/17 06:30:11;;;;;;;18.07;3.80;;;8.40;99.90;;;;;;5006913;28;20214;-80
2022/03/17 06:32:39;;;;;;;8.83;2.70;;;8.40;99.90;;;;;;5006525;28;20215;-79
2022/03/17 06:35:07;;;;;;;9.70;2.37;;;8.40;99.90;;;;;;5005612;28;20214;-79
2022/03/17 06:37:35;;;;;;;17.07;3.63;;;8.40;99.90;;;;;;5005724;28;20246;-80
2022/03/17 06:40:03;;;;;;;15.87;3.33;;;8.30;99.90;;;;;;5006791;28;20290;-81
2022/03/17 06:42:30;;;;;;;13.23;3.07;;;8.40;99.90;;;;;;5005593;28;20258;-78
2022/03/17 06:44:57;;;;;;;13.97;2.53;;;8.40;99.90;;;;;;5005799;28;20207;-80
2022/03/17 06:47:23;;;;;;;19.47;2.73;;;8.40;99.90;;;;;;5012879;28;20670;-80
2022/03/17 06:49:51;;;;;;;17.27;2.60;;;8.40;99.90;;;;;;5025091;28;20206;-79
2022/03/17 06:52:18;;;;;;;12.60;3.47;;;8.40;99.90;;;;;;5025442;28;20218;-79
2022/03/17 06:54:46;;;;;;;18.53;3.00;;;8.40;99.90;;;;;;5006359;28;20546;-79
2022/03/17 06:57:17;;;;;;;12.77;2.90;;;8.50;99.90;;;;;;5006139;28;20242;-79
2022/03/17 06:59:44;;;;;;;20.80;4.97;;;8.50;99.90;;;;;;5005662;28;20278;-80
2022/03/17 07:02:11;;;;;;;17.90;3.73;;;8.50;99.90;;;;;;5004579;28;20306;-80
2022/03/17 07:04:39;;;;;;;17.93;4.03;;;8.50;99.90;;;;;;5005482;28;20893;-78
2022/03/17 07:07:06;;;;;;;15.70;3.37;;;8.50;99.90;;;;;;5005557;28;20211;-78
2022/03/17 07:09:33;;;;;;;16.83;3.60;;;8.50;99.90;;;;;;5018140;28;20259;-80
2022/03/17 07:12:02;;;;;;;17.13;3.30;;;8.50;99.90;;;;;;5020629;28;20206;-80
2022/03/17 07:14:29;;;;;;;19.07;3.63;;;8.60;99.90;;;;;;5006348;28;20227;-84
2022/03/17 07:16:56;;;;;;;18.47;3.50;;;8.50;99.90;;;;;;5005350;28;20214;-78
2022/03/17 07:19:23;;;;;;;17.60;2.83;;;8.60;99.90;;;;;;5005026;28;20697;-83
2022/03/17 07:21:51;;;;;;;11.77;2.50;;;8.60;99.90;;;;;;5004201;28;20210;-78
2022/03/17 07:24:18;;;;;;;15.20;3.03;;;8.50;99.90;;;;;;5005005;28;20207;-78
2022/03/17 07:26:45;;;;;;;12.80;3.47;;;8.50;99.90;;;;;;5005871;28;20215;-80
2022/03/17 07:29:14;;;;;;;17.17;3.30;;;8.50;99.90;;;;;;5005318;28;20246;-79
2022/03/17 07:31:41;;;;;;;18.17;4.50;;;8.50;99.90;;;;;;5025876;23;20246;-81
2022/03/17 07:34:08;;;;;;;14.20;3.30;;;8.50;99.90;;;;;;5024976;28;20231;-79
2022/03/17 07:36:35;;;;;;;13.80;2.57;;;8.40;99.90;;;;;;5005168;28;20211;-79
2022/03/17 07:39:03;;;;;;;14.77;3.33;;;8.40;99.90;;;;;;5005067;28;20223;-77
2022/03/17 07:41:31;;;;;;;13.40;3.30;;;8.40;99.90;;;;;;4938190;28;21031;-79
2022/03/17 07:44:00;;;;;;;9.47;3.20;;;8.40;99.90;;;;;;5004245;28;20203;-77
2022/03/17 07:46:28;;;;;;;15.47;3.20;;;8.40;99.90;;;;;;5004937;28;20211;-78
2022/03/17 07:48:55;;;;;;;20.00;4.43;;;8.40;99.90;;;;;;5020428;28;20211;-80
2022/03/17 07:51:22;;;;;;;14.97;4.03;;;8.50;99.90;;;;;;5003938;28;20289;-79
2022/03/17 07:53:49;;;;;;;14.13;3.83;;;8.50;99.90;;;;;;5005164;28;20235;-79
2022/03/17 07:56:19;;;;;;;12.60;3.00;;;8.60;99.90;;;;;;4998818;28;20227;-78
2022/03/17 07:58:46;;;;;;;13.50;3.83;;;8.70;99.90;;;;;;5009159;28;20234;-79
2022/03/17 08:01:13;;;;;;;11.13;3.63;;;8.80;99.90;;;;;;5008831;28;20207;-79
2022/03/17 08:03:41;;;;;;;11.03;2.50;;;8.90;99.90;;;;;;5008610;28;20214;-79
2022/03/17 08:06:08;;;;;;;4.93;1.80;;;8.90;99.90;;;;;;5008097;28;20192;-81
2022/03/17 08:08:35;;;;;;;7.67;1.90;;;8.90;99.90;;;;;;5008168;28;20203;-80
2022/03/17 08:11:02;;;;;;;9.03;2.30;;;8.80;99.90;;;;;;5008249;28;20218;-77
2022/03/17 08:13:29;;;;;;;9.00;2.00;;;8.80;99.90;;;;;;5007684;28;20786;-78
2022/03/17 08:15:55;;;;;;;7.57;1.90;;;8.80;99.90;;;;;;5008590;28;20207;-78
2022/03/17 08:18:24;;;;;;;5.77;2.13;;;8.70;99.90;;;;;;5009079;28;20200;-79
2022/03/17 08:20:52;;;;;;;8.63;2.17;;;8.80;99.90;;;;;;5008426;28;20207;-78
2022/03/17 08:23:21;;;;;;;10.07;3.37;;;8.80;99.90;;;;;;5008995;28;20506;-81
2022/03/17 08:25:49;;;;;;;6.90;2.10;;;8.90;99.90;;;;;;5008342;28;20290;-80
2022/03/17 08:28:18;;;;;;;11.43;3.13;;;9.10;99.90;;;;;;5008644;28;20298;-79
2022/03/17 08:30:47;;;;;;;10.40;2.50;;;9.10;99.90;;;;;;5009040;28;20409;-79
2022/03/17 08:33:15;;;;;;;8.97;2.40;;;9.20;99.90;;;;;;5007361;28;20227;-81
2022/03/17 08:35:42;;;;;;;10.07;2.47;;;9.20;99.90;;;;;;5009913;28;20238;-79
2022/03/17 08:38:10;;;;;;;15.73;3.20;;;9.20;99.90;;;;;;5027760;28;20531;-79
2022/03/17 08:40:40;;;;;;;11.83;2.43;;;9.20;99.90;;;;;;5026741;28;20201;-77
2022/03/17 08:43:08;;;;;;;9.27;2.17;;;9.20;99.90;;;;;;5026803;28;20248;-80
2022/03/17 08:51:05;;;;;;;8.07;2.43;;;9.10;99.90;;;;;;5033814;28;20228;-79
2022/03/17 08:53:33;;;;;;;8.83;2.37;;;9.10;99.90;;;;;;5038318;28;20231;-79
2022/03/17 08:56:01;;;;;;;11.37;2.47;;;9.20;99.90;;;;;;5036248;28;20226;-77
2022/03/17 08:58:28;;;;;;;7.77;1.80;;;9.30;99.90;;;;;;5038989;28;20220;-80
2022/03/17 09:00:55;;;;;;;8.20;2.17;;;9.40;99.90;;;;;;5032220;28;20213;-79
2022/03/17 09:03:22;;;;;;;8.23;2.83;;;9.50;99.90;;;;;;5027617;28;20291;-79
2022/03/17 09:05:49;;;;;;;11.87;2.80;;;9.50;99.90;;;;;;5038187;28;20218;-78
2022/03/17 09:08:16;;;;;;;11.33;2.27;;;9.60;99.90;;;;;;5046665;22;20215;-79
2022/03/17 09:10:46;;;;;;;11.43;2.47;;;9.60;99.90;;;;;;5045371;28;20648;-79
2022/03/17 09:13:13;;;;;;;7.10;2.10;;;9.60;99.90;;;;;;5043545;28;20530;-80
2022/03/17 09:15:42;;;;;;;7.20;2.17;;;9.70;99.90;;;;;;5044784;28;20244;-79
2022/03/17 09:18:10;;;;;;;10.17;2.50;;;9.80;99.90;;;;;;5045445;28;20218;-79
2022/03/17 09:20:37;;;;;;;11.63;2.33;;;9.90;99.90;;;;;;5044014;28;20214;-79
2022/03/17 09:23:04;;;;;;;8.40;2.20;;;9.80;99.90;;;;;;5044603;28;20218;-80
2022/03/17 09:25:33;;;;;;;11.23;2.63;;;9.80;99.90;;;;;;5044366;28;20213;-79
2022/03/17 09:28:05;;;;;;;9.77;2.50;;;9.80;99.90;;;;;;5041494;28;20304;-79
2022/03/17 09:30:32;;;;;;;7.93;1.73;;;9.90;99.90;;;;;;5044182;28;20221;-80
2022/03/17 09:33:01;;;;;;;9.63;2.67;;;9.90;99.90;;;;;;5044691;28;20213;-80
2022/03/17 09:35:28;;;;;;;9.63;2.20;;;10.00;99.90;;;;;;5040641;28;20211;-80
2022/03/17 09:37:55;;;;;;;9.77;2.57;;;10.00;99.90;;;;;;5044572;28;20225;-80
2022/03/17 09:40:22;;;;;;;10.50;2.40;;;10.20;99.90;;;;;;5041418;28;20606;-79
2022/03/17 09:42:49;;;;;;;8.30;2.07;;;10.20;99.90;;;;;;5045635;28;20205;-81
2022/03/17 09:45:17;;;;;;;9.33;2.20;;;10.30;99.90;;;;;;5045902;28;20202;-81
2022/03/17 09:47:45;;;;;;;8.40;3.03;;;10.30;99.90;;;;;;5044440;28;20205;-80
2022/03/17 09:50:15;;;;;;;12.73;2.50;;;10.40;99.90;;;;;;5028104;28;20767;-82
2022/03/17 09:52:44;;;;;;;8.93;2.50;;;10.50;99.90;;;;;;5028430;28;20226;-82
2022/03/17 09:55:11;;;;;;;17.23;3.40;;;10.60;99.90;;;;;;5027780;28;20223;-81
2022/03/17 09:57:41;;;;;;;13.80;2.87;;;10.70;99.90;;;;;;5027838;28;20495;-80
2022/03/17 10:00:11;;;;;;;8.27;2.50;;;10.70;99.90;;;;;;5027412;28;20209;-80
2022/03/17 10:02:40;;;;;;;10.47;2.63;;;10.60;99.90;;;;;;5025955;28;20216;-78
2022/03/17 10:05:08;;;;;;;9.23;2.20;;;10.80;99.90;;;;;;5026191;28;20347;-79
2022/03/17 10:07:35;;;;;;;18.57;4.67;;;10.90;99.90;;;;;;5027261;28;20202;-80
2022/03/17 10:10:02;;;;;;;12.87;2.73;;;10.90;99.90;;;;;;5026397;28;20238;-78
2022/03/17 10:12:30;;;;;;;19.93;3.70;;;10.90;99.90;;;;;;5038642;28;20870;-79
2022/03/17 10:14:59;;;;;;;14.07;2.57;;;10.90;99.90;;;;;;5027309;28;20540;-78
2022/03/17 10:17:31;;;;;;;14.63;2.87;;;11.00;99.90;;;;;;5025856;28;20198;-79
2022/03/17 10:20:13;;;;;;;11.47;2.53;;;11.10;99.90;;;;;;5025723;28;20301;-81
2022/03/17 10:22:44;;;;;;;11.50;3.17;;;11.20;99.90;;;;;;5026264;28;20225;-82
2022/03/17 10:25:14;;;;;;;12.13;3.27;;;11.30;99.90;;;;;;5025856;28;20289;-79
2022/03/17 10:27:42;;;;;;;8.73;3.30;;;11.40;99.90;;;;;;5026649;28;20214;-80
2022/03/17 10:30:10;;;;;;;11.00;2.67;;;11.40;99.90;;;;;;5027298;28;20206;-80
2022/03/17 10:32:37;;;;;;;12.00;2.93;;;11.40;99.90;;;;;;5027796;28;20203;-80
2022/03/17 10:35:08;;;;;;;10.87;3.10;;;11.40;99.90;;;;;;5026372;28;20280;-80
2022/03/17 10:37:36;;;;;;;12.87;2.70;;;11.40;99.90;;;;;;5027310;28;20290;-80
2022/03/17 10:40:10;;;;;;;12.93;3.30;;;11.50;99.90;;;;;;5027436;28;20202;-82
2022/03/17 10:42:38;;;;;;;15.43;2.90;;;11.50;99.90;;;;;;5026741;28;20214;-82
2022/03/17 10:45:07;;;;;;;11.40;2.87;;;11.30;99.90;;;;;;5026128;28;20233;-79
2022/03/17 10:47:36;;;;;;;11.70;2.90;;;11.30;99.90;;;;;;5043467;28;20201;-80
2022/03/17 10:50:08;;;;;;;17.13;3.93;;;11.50;99.90;;;;;;5059012;28;20207;-80
2022/03/17 10:52:53;;;;;;;7.90;2.60;;;11.60;99.90;;;;;;5026166;28;20293;-80
2022/03/17 10:55:22;;;;;;;12.23;3.00;;;11.70;99.90;;;;;;5025234;28;20229;-82
2022/03/17 10:57:50;;;;;;;13.83;3.40;;;11.90;99.90;;;;;;5026447;28;20202;-81
2022/03/17 11:00:21;;;;;;;12.97;2.77;;;11.90;99.90;;;;;;5026614;28;20284;-79
2022/03/17 11:02:50;;;;;;;10.40;2.40;;;11.90;99.90;;;;;;5038861;28;20214;-79
2022/03/17 11:05:19;;;;;;;8.43;2.97;;;11.80;99.90;;;;;;5045844;28;20233;-79
2022/03/17 11:07:46;;;;;;;14.20;3.07;;;11.80;99.90;;;;;;5029796;28;20205;-78
2022/03/17 11:10:16;;;;;;;13.70;2.57;;;11.90;99.90;;;;;;5026703;28;20238;-79
2022/03/17 11:12:43;;;;;;;17.83;3.90;;;12.00;99.90;;;;;;5027016;28;20213;-80
2022/03/17 11:15:12;;;;;;;16.90;3.43;;;12.00;99.90;;;;;;5025882;28;20329;-79
2022/03/17 11:17:43;;;;;;;14.37;3.13;;;12.10;99.90;;;;;;5026579;28;20585;-78
2022/03/17 11:20:18;;;;;;;16.93;3.30;;;12.30;99.90;;;;;;5026341;28;20191;-80
2022/03/17 11:23:09;;;;;;;13.63;3.07;;;12.10;99.90;;;;;;5025201;28;20252;-79
2022/03/17 11:25:36;;;;;;;11.67;4.10;;;12.00;99.90;;;;;;5026017;28;20498;-78
2022/03/17 11:28:05;;;;;;;12.57;2.90;;;11.90;99.90;;;;;;5037862;28;20321;-80
2022/03/17 11:30:43;;;;;;;11.13;3.20;;;11.90;99.90;;;;;;5045280;28;20198;-81
2022/03/17 11:33:24;;;;;;;9.53;3.10;;;11.80;99.90;;;;;;5048697;28;20276;-82
2022/03/17 11:35:59;;;;;;;14.63;2.47;;;11.90;99.90;;;;;;5045211;28;20230;-77
2022/03/17 11:38:29;;;;;;;15.13;3.07;;;12.00;99.90;;;;;;5029902;28;20499;-81
2022/03/17 11:41:10;;;;;;;9.70;2.30;;;12.00;99.90;;;;;;5030005;28;20209;-80
2022/03/17 11:43:42;;;;;;;12.97;2.43;;;12.20;99.90;;;;;;5036575;28;20205;-82
2022/03/17 11:46:14;;;;;;;9.97;3.33;;;12.20;99.90;;;;;;5048487;28;20210;-79
2022/03/17 11:48:41;;;;;;;12.97;2.53;;;12.10;99.90;;;;;;5048262;28;20884;-81
2022/03/17 11:51:09;;;;;;;15.50;3.40;;;12.20;99.90;;;;;;5048412;28;20206;-80
2022/03/17 11:53:39;;;;;;;11.33;2.27;;;12.20;99.90;;;;;;5040337;28;20209;-81
2022/03/17 11:56:09;;;;;;;11.67;2.40;;;12.20;99.90;;;;;;5028301;28;20264;-82
2022/03/17 11:58:43;;;;;;;10.43;2.37;;;12.40;99.90;;;;;;5028845;28;20205;-81
2022/03/17 12:01:12;;;;;;;11.50;2.87;;;12.50;99.90;;;;;;5028577;28;20206;-81
2022/03/17 12:03:43;;;;;;;10.83;2.37;;;12.50;99.90;;;;;;5029407;28;20221;-80
2022/03/17 12:06:13;;;;;;;9.20;2.80;;;12.70;99.90;;;;;;5028435;28;20206;-80
2022/03/17 12:08:42;;;;;;;9.50;2.50;;;12.70;99.90;;;;;;5028159;28;20226;-79
2022/03/17 12:11:11;;;;;;;15.07;2.33;;;12.90;99.90;;;;;;5028162;28;20805;-80
2022/03/17 12:13:38;;;;;;;12.20;2.97;;;13.00;99.90;;;;;;5028444;28;20313;-80
2022/03/17 12:16:07;;;;;;;10.43;2.33;;;13.00;99.90;;;;;;5027820;28;20619;-80
2022/03/17 12:19:00;;;;;;;9.47;2.40;;;13.10;99.90;;;;;;5027043;28;20610;-80
2022/03/17 12:22:00;;;;;;;12.33;2.47;;;13.30;99.90;;;;;;5027832;28;20206;-79
2022/03/17 12:24:35;;;;;;;8.43;2.20;;;13.50;99.90;;;;;;5028341;28;20206;-80
2022/03/17 12:27:04;;;;;;;10.07;2.33;;;13.50;99.90;;;;;;5027509;28;20202;-81
2022/03/17 12:29:32;;;;;;;7.93;2.33;;;13.30;99.90;;;;;;5028057;28;20670;-79
2022/03/17 12:32:07;;;;;;;12.23;2.43;;;13.20;99.90;;;;;;5028318;28;20257;-80
2022/03/17 12:34:35;;;;;;;13.53;3.23;;;13.10;99.90;;;;;;5028285;28;20241;-78
2022/03/17 12:37:03;;;;;;;14.97;3.63;;;13.00;99.90;;;;;;5028401;28;20233;-78
2022/03/17 12:39:31;;;;;;;6.83;2.17;;;12.90;99.90;;;;;;5027106;28;20564;-82
2022/03/17 12:42:00;;;;;;;14.97;2.60;;;13.00;99.90;;;;;;5027698;28;20198;-79
2022/03/17 12:44:28;;;;;;;14.93;2.87;;;12.90;99.90;;;;;;5027443;28;20253;-81
2022/03/17 12:46:56;;;;;;;12.67;1.97;;;12.90;99.90;;;;;;5034667;28;20205;-81
2022/03/17 12:49:23;;;;;;;15.93;2.23;;;12.80;99.90;;;;;;5067425;28;20901;-78
2022/03/17 12:51:50;;;;;;;9.03;2.03;;;12.80;99.90;;;;;;5052142;28;20234;-80
2022/03/17 12:54:18;;;;;;;6.70;1.80;;;12.70;99.90;;;;;;5026675;28;20912;-79
2022/03/17 12:56:51;;;;;;;15.67;2.43;;;12.60;99.90;;;;;;5027874;28;20334;-79
2022/03/17 12:59:21;;;;;;;9.20;1.93;;;12.40;99.90;;;;;;5030658;28;20233;-78
2022/03/17 13:01:48;;;;;;;7.50;2.00;;;12.40;99.90;;;;;;5047553;28;20665;-81
2022/03/17 13:04:18;;;;;;;11.10;2.70;;;12.40;99.90;;;;;;5047481;28;20591;-79